Terminal Aerodrome Forecast
Issued by NWS Cleveland, OH

Home | Current Version | Previous Version | Graphics & Text | Print | Product List | Glossary Off
Versions: 1 2 3 4 5 6 7 8 9 10 11 12 13 14 15 16 17

446
FTUS41 KCLE 110522
TAFMFD
TAF
KMFD 110522Z 1106/1206 28010G18KT 3SM -SHSN OVC025
      TEMPO 1106/1107 1SM -SHSN OVC015
     FM110900 28008KT P6SM SCT035
     FM111600 28008KT P6SM BKN035
     FM112300 22005KT P6SM SCT035=

USA.gov is the U.S. government's official web portal to all federal, state and local government web resources and services.